Darstellungsparameter: Aktuell verwendete Einstellungen:
Skalierung der Graphiken ... ?
xyx+y,   Skalierungsfaktor:      Skalierung: Modus: x, Faktor: 1
Darstellungszeitraum ... ?
Vom - - bis: - -   Zeitraum: 16.08.2015 - 16.08.2015
Min/Max/Avg-Anzeige ... ?
Zeige MMA aktuell
Zeige MMA Monat
Zeige MMA alles
Zeige --A aktuell
Zeige --A Monat
Zeige --A alles
Keine MMA-Anzeige
MMA:
Average (ber die Originaldaten)
MMA-Basis: 16.08.2015 - 16.08.2015
Quicknavigation für Darstellung... ?
Tage:      1T, 2T, 3T, 5T -1T -2T -3T -5T +1T +2T +3T +5T
Wochen: 1W, 2W, 3W -1W -2W -3W +1W +2W +3W
Monate: 1M, 3M, 6M -1M -3M -6M +1M +3M +6M
Jahre:    1J, 3J, 5J, 10J -1J -3J -5J -10J +1J +3J +5J +10J
Nutze für die Darstellung ... ?
Originaldaten oder Mittelwerte auf ...
Stundenbasis Tagesbasis Wochenbasis
Monatsbasis Jahresbasis      Datenbasis: Original-Daten
Darstellen als:
Statistik (Auto) Statistik J:M      Darstellung:
Zur Graphik,    zurück zur Übersicht aller Sensoren.
 
Tabellarische Datenbersicht: ?
 
Sensor: Nr:Datum:Temp:Abs-Feuchte:Windchill:Wind:
Aussen-T/F 1 16-08-2015 00:00:00 17.8 C 12.45 g/m*3 17.8 C 9.7 km/h
2 16-08-2015 00:05:00 17.8 C 12.45 g/m*3 17.8 C 11.3 km/h
3 16-08-2015 00:10:00 17.8 C 12.29 g/m*3 17.8 C 4.8 km/h
4 16-08-2015 00:15:00 17.8 C 12.45 g/m*3 17.8 C 4.8 km/h
5 16-08-2015 00:20:00 17.8 C 12.45 g/m*3 17.8 C 4.8 km/h
6 16-08-2015 00:25:00 17.7 C 12.22 g/m*3 17.7 C 12.9 km/h
7 16-08-2015 00:30:00 17.7 C 12.37 g/m*3 17.7 C 6.4 km/h
8 16-08-2015 00:35:00 17.7 C 12.37 g/m*3 17.7 C 3.2 km/h
9 16-08-2015 00:40:00 17.6 C 12.3 g/m*3 17.6 C 9.7 km/h
10 16-08-2015 00:45:00 17.6 C 12.3 g/m*3 17.6 C 12.9 km/h
11 16-08-2015 00:50:00 17.5 C 12.37 g/m*3 17.5 C 6.4 km/h
12 16-08-2015 00:55:00 17.4 C 12.3 g/m*3 17.4 C 4.8 km/h
13 16-08-2015 01:00:00 17.4 C 12.3 g/m*3 17.4 C 11.3 km/h
14 16-08-2015 01:05:00 17.4 C 12.3 g/m*3 17.4 C 9.7 km/h
15 16-08-2015 01:10:00 17.4 C 12.3 g/m*3 17.4 C 6.4 km/h
16 16-08-2015 01:15:00 17.4 C 12.3 g/m*3 17.4 C 3.2 km/h
17 16-08-2015 01:20:00 17.3 C 12.23 g/m*3 17.3 C 11.3 km/h
18 16-08-2015 01:25:00 17.3 C 12.23 g/m*3 17.3 C 4.8 km/h
19 16-08-2015 01:30:00 17.3 C 12.23 g/m*3 17.3 C 6.4 km/h
20 16-08-2015 01:35:00 17.3 C 12.37 g/m*3 17.3 C 6.4 km/h
21 16-08-2015 01:40:00 17.3 C 12.37 g/m*3 17.3 C 4.8 km/h
22 16-08-2015 01:45:00 17.2 C 12.3 g/m*3 17.2 C 11.3 km/h
23 16-08-2015 01:50:00 17.2 C 12.3 g/m*3 17.2 C 4.8 km/h
24 16-08-2015 01:55:00 17.2 C 12.3 g/m*3 17.2 C 6.4 km/h
25 16-08-2015 02:00:00 17.2 C 12.3 g/m*3 17.2 C 4.8 km/h
Sensor: Nr:Datum:Temp:Abs-Feuchte:Windchill:Wind:
Aussen-T/F 26 16-08-2015 02:05:00 17.2 C 12.3 g/m*3 17.2 C 8.1 km/h
27 16-08-2015 02:10:00 17.2 C 12.3 g/m*3 17.2 C 9.7 km/h
28 16-08-2015 02:15:00 17.1 C 12.23 g/m*3 17.1 C 8.1 km/h
29 16-08-2015 02:20:00 17.1 C 12.23 g/m*3 17.1 C 3.2 km/h
30 16-08-2015 02:25:00 17.1 C 12.23 g/m*3 17.1 C 11.3 km/h
31 16-08-2015 02:30:00 17.1 C 12.23 g/m*3 17.1 C 6.4 km/h
32 16-08-2015 02:35:00 17.2 C 12.3 g/m*3 17.2 C 8.1 km/h
33 16-08-2015 02:40:00 17.1 C 12.08 g/m*3 17.1 C 6.4 km/h
34 16-08-2015 02:45:00 17.1 C 12.08 g/m*3 17.1 C 11.3 km/h
35 16-08-2015 02:50:00 17.1 C 12.08 g/m*3 17.1 C 9.7 km/h
36 16-08-2015 02:55:00 17.1 C 12.08 g/m*3 17.1 C 6.4 km/h
37 16-08-2015 03:00:00 17.1 C 12.08 g/m*3 17.1 C 4.8 km/h
38 16-08-2015 03:05:00 17.1 C 12.23 g/m*3 17.1 C 6.4 km/h
39 16-08-2015 03:10:00 17.1 C 12.23 g/m*3 17.1 C 4.8 km/h
40 16-08-2015 03:15:00 17.1 C 12.23 g/m*3 17.1 C 3.2 km/h
41 16-08-2015 03:20:00 17.1 C 12.23 g/m*3 17.1 C 3.2 km/h
42 16-08-2015 03:25:00 17 C 12.15 g/m*3 17 C 6.4 km/h
43 16-08-2015 03:30:00 17 C 12.15 g/m*3 17 C 8.1 km/h
44 16-08-2015 03:35:00 17.1 C 12.23 g/m*3 17.1 C 3.2 km/h
45 16-08-2015 03:40:00 17.1 C 12.23 g/m*3 17.1 C 8.1 km/h
46 16-08-2015 03:45:00 17 C 12.15 g/m*3 17 C 14.5 km/h
47 16-08-2015 03:50:00 17 C 12.15 g/m*3 17 C 6.4 km/h
48 16-08-2015 03:55:00 17 C 12.3 g/m*3 17 C 12.9 km/h
49 16-08-2015 04:00:00 16.9 C 12.23 g/m*3 16.9 C 9.7 km/h
50 16-08-2015 04:05:00 16.9 C 12.23 g/m*3 16.9 C 11.3 km/h
Sensor: Nr:Datum:Temp:Abs-Feuchte:Windchill:Wind:
Aussen-T/F 51 16-08-2015 04:10:00 16.9 C 12.23 g/m*3 16.9 C 9.7 km/h
52 16-08-2015 04:15:00 16.9 C 12.23 g/m*3 16.9 C 12.9 km/h
53 16-08-2015 04:20:00 16.9 C 12.23 g/m*3 16.9 C 9.7 km/h
54 16-08-2015 04:25:00 16.8 C 12.15 g/m*3 16.8 C 9.7 km/h
55 16-08-2015 04:30:00 16.8 C 12.15 g/m*3 16.8 C 8.1 km/h
56 16-08-2015 04:35:00 16.9 C 12.23 g/m*3 16.9 C 6.4 km/h
57 16-08-2015 04:40:00 16.9 C 12.23 g/m*3 16.9 C 8.1 km/h
58 16-08-2015 04:45:00 16.9 C 12.23 g/m*3 16.9 C 8.1 km/h
59 16-08-2015 04:50:00 16.9 C 12.23 g/m*3 16.9 C 4.8 km/h
60 16-08-2015 04:55:00 16.9 C 12.23 g/m*3 16.9 C 4.8 km/h
61 16-08-2015 05:00:00 16.9 C 12.23 g/m*3 16.9 C 6.4 km/h
62 16-08-2015 05:05:00 16.9 C 12.23 g/m*3 16.9 C 6.4 km/h
63 16-08-2015 05:10:00 16.9 C 12.23 g/m*3 16.9 C 9.7 km/h
64 16-08-2015 05:15:00 16.8 C 12.15 g/m*3 16.8 C 8.1 km/h
65 16-08-2015 05:20:00 16.8 C 12.15 g/m*3 16.8 C 9.7 km/h
66 16-08-2015 05:25:00 16.8 C 12.15 g/m*3 16.8 C 8.1 km/h
67 16-08-2015 05:30:00 16.8 C 12.15 g/m*3 16.8 C 8.1 km/h
68 16-08-2015 05:35:00 16.8 C 12.15 g/m*3 16.8 C 9.7 km/h
69 16-08-2015 05:40:00 16.8 C 12.15 g/m*3 16.8 C 14.5 km/h
70 16-08-2015 05:45:00 16.8 C 12.15 g/m*3 16.8 C 8.1 km/h
71 16-08-2015 05:50:00 16.8 C 12.15 g/m*3 16.8 C 12.9 km/h
72 16-08-2015 05:55:00 16.7 C 12.08 g/m*3 16.7 C 11.3 km/h
73 16-08-2015 06:00:00 16.7 C 12.08 g/m*3 16.7 C 9.7 km/h
74 16-08-2015 06:05:00 16.7 C 12.22 g/m*3 16.7 C 9.7 km/h
75 16-08-2015 06:10:00 16.7 C 12.22 g/m*3 16.7 C 11.3 km/h
Sensor: Nr:Datum:Temp:Abs-Feuchte:Windchill:Wind:
Aussen-T/F 76 16-08-2015 06:15:00 16.6 C 12.15 g/m*3 16.6 C 8.1 km/h
77 16-08-2015 06:20:00 16.6 C 12.29 g/m*3 16.6 C 11.3 km/h
78 16-08-2015 06:25:00 16.4 C 12.14 g/m*3 16.4 C 8.1 km/h
79 16-08-2015 06:30:00 16.4 C 12.28 g/m*3 16.4 C 6.4 km/h
80 16-08-2015 06:35:00 16.4 C 12.28 g/m*3 16.4 C 3.2 km/h
81 16-08-2015 06:40:00 16.3 C 12.21 g/m*3 16.3 C 9.7 km/h
82 16-08-2015 06:45:00 16.3 C 12.35 g/m*3 16.3 C 14.5 km/h
83 16-08-2015 06:50:00 16.2 C 12.27 g/m*3 16.2 C 9.7 km/h
84 16-08-2015 06:55:00 16.2 C 12.27 g/m*3 16.2 C 8.1 km/h
85 16-08-2015 07:00:00 16.1 C 12.2 g/m*3 16.1 C 4.8 km/h
86 16-08-2015 07:05:00 16.1 C 12.34 g/m*3 16.1 C 4.8 km/h
87 16-08-2015 07:10:00 16.1 C 12.34 g/m*3 16.1 C 6.4 km/h
88 16-08-2015 07:15:00 16.1 C 12.47 g/m*3 16.1 C 0 km/h
89 16-08-2015 07:20:00 16 C 12.53 g/m*3 16 C 3.2 km/h
90 16-08-2015 07:25:00 15.9 C 12.46 g/m*3 15.9 C 1.6 km/h
91 16-08-2015 07:30:00 15.9 C 12.46 g/m*3 15.9 C 6.4 km/h
92 16-08-2015 07:35:00 15.8 C 12.38 g/m*3 15.8 C 1.6 km/h
93 16-08-2015 07:40:00 15.8 C 12.38 g/m*3 15.8 C 4.8 km/h
94 16-08-2015 07:45:00 15.8 C 12.38 g/m*3 15.8 C 6.4 km/h
95 16-08-2015 07:50:00 15.8 C 12.38 g/m*3 15.8 C 1.6 km/h
96 16-08-2015 07:55:00 15.8 C 12.52 g/m*3 15.8 C 4.8 km/h
97 16-08-2015 08:00:00 15.7 C 12.44 g/m*3 15.7 C 4.8 km/h
98 16-08-2015 08:05:00 15.8 C 12.52 g/m*3 15.8 C 4.8 km/h
99 16-08-2015 08:10:00 15.8 C 12.52 g/m*3 15.8 C 8.1 km/h
100 16-08-2015 08:15:00 15.7 C 12.31 g/m*3 15.7 C 9.7 km/h
Sensor: Nr:Datum:Temp:Abs-Feuchte:Windchill:Wind:
Aussen-T/F 101 16-08-2015 08:20:00 15.7 C 12.31 g/m*3 15.7 C 3.2 km/h
102 16-08-2015 08:25:00 15.7 C 12.31 g/m*3 15.7 C 9.7 km/h
103 16-08-2015 08:30:00 15.7 C 12.31 g/m*3 15.7 C 12.9 km/h
104 16-08-2015 08:35:00 15.7 C 12.31 g/m*3 15.7 C 9.7 km/h
105 16-08-2015 08:40:00 15.7 C 12.44 g/m*3 15.7 C 3.2 km/h
106 16-08-2015 08:45:00 15.7 C 12.31 g/m*3 15.7 C 1.6 km/h
107 16-08-2015 08:50:00 15.7 C 12.44 g/m*3 15.7 C 3.2 km/h
108 16-08-2015 08:55:00 15.7 C 12.31 g/m*3 15.7 C 3.2 km/h
109 16-08-2015 09:00:00 15.7 C 12.31 g/m*3 15.7 C 4.8 km/h
110 16-08-2015 09:05:00 15.7 C 12.31 g/m*3 15.7 C 3.2 km/h
111 16-08-2015 09:10:00 15.7 C 12.44 g/m*3 15.7 C 3.2 km/h
112 16-08-2015 09:15:00 15.7 C 12.44 g/m*3 15.7 C 6.4 km/h
113 16-08-2015 09:20:00 15.7 C 12.31 g/m*3 15.7 C 4.8 km/h
114 16-08-2015 09:25:00 15.7 C 12.31 g/m*3 15.7 C 4.8 km/h
115 16-08-2015 09:30:00 15.7 C 12.31 g/m*3 15.7 C 8.1 km/h
116 16-08-2015 09:35:00 15.7 C 12.31 g/m*3 15.7 C 6.4 km/h
117 16-08-2015 09:40:00 15.7 C 12.31 g/m*3 15.7 C 8.1 km/h
118 16-08-2015 09:45:00 15.7 C 12.31 g/m*3 15.7 C 8.1 km/h
119 16-08-2015 09:50:00 15.7 C 12.31 g/m*3 15.7 C 4.8 km/h
120 16-08-2015 09:55:00 15.7 C 12.44 g/m*3 15.7 C 3.2 km/h
121 16-08-2015 10:00:00 15.7 C 12.44 g/m*3 15.7 C 4.8 km/h
122 16-08-2015 10:05:00 15.7 C 12.31 g/m*3 15.7 C 6.4 km/h
123 16-08-2015 10:10:00 15.8 C 12.52 g/m*3 15.8 C 4.8 km/h
124 16-08-2015 10:15:00 15.7 C 12.31 g/m*3 15.7 C 4.8 km/h
125 16-08-2015 10:20:00 15.7 C 12.31 g/m*3 15.7 C 8.1 km/h
Sensor: Nr:Datum:Temp:Abs-Feuchte:Windchill:Wind:
Aussen-T/F 126 16-08-2015 10:25:00 15.8 C 12.38 g/m*3 15.8 C 4.8 km/h
127 16-08-2015 10:30:00 15.8 C 12.38 g/m*3 15.8 C 8.1 km/h
128 16-08-2015 10:35:00 15.8 C 12.38 g/m*3 15.8 C 9.7 km/h
129 16-08-2015 10:40:00 15.8 C 12.38 g/m*3 15.8 C 8.1 km/h
130 16-08-2015 10:45:00 15.8 C 12.52 g/m*3 15.8 C 0 km/h
131 16-08-2015 10:50:00 15.8 C 12.38 g/m*3 15.8 C 12.9 km/h
132 16-08-2015 10:55:00 15.8 C 12.38 g/m*3 15.8 C 14.5 km/h
133 16-08-2015 11:00:00 15.8 C 12.38 g/m*3 15.8 C 4.8 km/h
134 16-08-2015 11:05:00 15.8 C 12.38 g/m*3 15.8 C 3.2 km/h
135 16-08-2015 11:10:00 15.8 C 12.38 g/m*3 15.8 C 8.1 km/h
136 16-08-2015 11:15:00 15.8 C 12.38 g/m*3 15.8 C 11.3 km/h
137 16-08-2015 11:20:00 15.9 C 12.46 g/m*3 15.9 C 4.8 km/h
138 16-08-2015 11:25:00 15.9 C 12.46 g/m*3 15.9 C 8.1 km/h
139 16-08-2015 11:30:00 15.9 C 12.32 g/m*3 15.9 C 12.9 km/h
140 16-08-2015 11:35:00 15.9 C 12.32 g/m*3 15.9 C 6.4 km/h
141 16-08-2015 11:40:00 15.9 C 12.32 g/m*3 15.9 C 11.3 km/h
142 16-08-2015 11:45:00 15.9 C 12.32 g/m*3 15.9 C 4.8 km/h
143 16-08-2015 11:50:00 15.9 C 12.32 g/m*3 15.9 C 6.4 km/h
144 16-08-2015 11:55:00 15.9 C 12.32 g/m*3 15.9 C 6.4 km/h
145 16-08-2015 12:00:00 15.8 C 12.25 g/m*3 15.8 C 8.1 km/h
146 16-08-2015 12:05:00 15.8 C 12.25 g/m*3 15.8 C 11.3 km/h
147 16-08-2015 12:10:00 15.8 C 12.25 g/m*3 15.8 C 6.4 km/h
148 16-08-2015 12:15:00 15.8 C 12.25 g/m*3 15.8 C 4.8 km/h
149 16-08-2015 12:20:00 15.8 C 12.25 g/m*3 15.8 C 4.8 km/h
150 16-08-2015 12:25:00 15.8 C 12.25 g/m*3 15.8 C 4.8 km/h
Sensor: Nr:Datum:Temp:Abs-Feuchte:Windchill:Wind:
Aussen-T/F 151 16-08-2015 12:30:00 15.8 C 12.25 g/m*3 15.8 C 9.7 km/h
152 16-08-2015 12:35:00 15.8 C 12.25 g/m*3 15.8 C 4.8 km/h
153 16-08-2015 12:40:00 15.8 C 12.25 g/m*3 15.8 C 11.3 km/h
154 16-08-2015 12:45:00 15.8 C 12.25 g/m*3 15.8 C 6.4 km/h
155 16-08-2015 12:50:00 15.8 C 12.25 g/m*3 15.8 C 8.1 km/h
156 16-08-2015 12:55:00 15.9 C 12.32 g/m*3 15.9 C 6.4 km/h
157 16-08-2015 13:00:00 15.9 C 12.19 g/m*3 15.9 C 3.2 km/h
158 16-08-2015 13:05:00 15.9 C 12.19 g/m*3 15.9 C 9.7 km/h
159 16-08-2015 13:10:00 15.9 C 12.19 g/m*3 15.9 C 8.1 km/h
160 16-08-2015 13:15:00 15.9 C 12.19 g/m*3 15.9 C 4.8 km/h
161 16-08-2015 13:20:00 15.9 C 12.19 g/m*3 15.9 C 6.4 km/h
162 16-08-2015 13:25:00 16.1 C 12.34 g/m*3 16.1 C 6.4 km/h
163 16-08-2015 13:30:00 16 C 12.13 g/m*3 16 C 9.7 km/h
164 16-08-2015 13:35:00 15.9 C 12.05 g/m*3 15.9 C 6.4 km/h
165 16-08-2015 13:40:00 15.9 C 12.05 g/m*3 15.9 C 6.4 km/h
166 16-08-2015 13:45:00 15.9 C 12.05 g/m*3 15.9 C 17.7 km/h
167 16-08-2015 13:50:00 15.8 C 11.98 g/m*3 15.8 C 6.4 km/h
168 16-08-2015 13:55:00 15.8 C 11.98 g/m*3 15.8 C 11.3 km/h
169 16-08-2015 14:00:00 15.8 C 12.11 g/m*3 15.8 C 11.3 km/h
170 16-08-2015 14:05:00 15.8 C 12.11 g/m*3 15.8 C 11.3 km/h
171 16-08-2015 14:10:00 15.8 C 12.11 g/m*3 15.8 C 8.1 km/h
172 16-08-2015 14:15:00 15.7 C 12.04 g/m*3 15.7 C 8.1 km/h
173 16-08-2015 14:20:00 15.7 C 12.04 g/m*3 15.7 C 4.8 km/h
174 16-08-2015 14:25:00 15.7 C 12.04 g/m*3 15.7 C 6.4 km/h
175 16-08-2015 14:30:00 15.7 C 12.04 g/m*3 15.7 C 1.6 km/h
Sensor: Nr:Datum:Temp:Abs-Feuchte:Windchill:Wind:
Aussen-T/F 176 16-08-2015 14:35:00 15.7 C 12.18 g/m*3 15.7 C 6.4 km/h
177 16-08-2015 14:40:00 15.7 C 12.18 g/m*3 15.7 C 6.4 km/h
178 16-08-2015 14:45:00 15.7 C 12.18 g/m*3 15.7 C 3.2 km/h
179 16-08-2015 14:50:00 15.7 C 12.18 g/m*3 15.7 C 3.2 km/h
180 16-08-2015 14:55:00 15.7 C 12.18 g/m*3 15.7 C 6.4 km/h
181 16-08-2015 15:00:00 15.7 C 12.18 g/m*3 15.7 C 4.8 km/h
182 16-08-2015 15:05:00 15.8 C 12.25 g/m*3 15.8 C 4.8 km/h
183 16-08-2015 15:10:00 15.8 C 12.25 g/m*3 15.8 C 6.4 km/h
184 16-08-2015 15:15:00 15.8 C 12.25 g/m*3 15.8 C 9.7 km/h
185 16-08-2015 15:20:00 15.8 C 12.25 g/m*3 15.8 C 6.4 km/h
186 16-08-2015 15:25:00 15.8 C 12.38 g/m*3 15.8 C 1.6 km/h
187 16-08-2015 15:30:00 15.8 C 12.25 g/m*3 15.8 C 6.4 km/h
188 16-08-2015 15:35:00 15.8 C 12.25 g/m*3 15.8 C 8.1 km/h
189 16-08-2015 15:40:00 15.8 C 12.25 g/m*3 15.8 C 1.6 km/h
190 16-08-2015 15:45:00 15.8 C 12.25 g/m*3 15.8 C 8.1 km/h
191 16-08-2015 15:50:00 15.8 C 12.38 g/m*3 15.8 C 3.2 km/h
192 16-08-2015 15:55:00 15.8 C 12.38 g/m*3 15.8 C 9.7 km/h
193 16-08-2015 16:00:00 15.9 C 12.46 g/m*3 15.9 C 0 km/h
194 16-08-2015 16:05:00 15.9 C 12.46 g/m*3 15.9 C 3.2 km/h
195 16-08-2015 16:10:00 15.9 C 12.59 g/m*3 15.9 C 6.4 km/h
196 16-08-2015 16:15:00 15.9 C 12.59 g/m*3 15.9 C 1.6 km/h
197 16-08-2015 16:20:00 15.9 C 12.59 g/m*3 15.9 C 3.2 km/h
198 16-08-2015 16:25:00 15.9 C 12.59 g/m*3 15.9 C 3.2 km/h
199 16-08-2015 16:30:00 15.8 C 12.52 g/m*3 15.8 C 4.8 km/h
200 16-08-2015 16:35:00 15.8 C 12.52 g/m*3 15.8 C 1.6 km/h
Sensor: Nr:Datum:Temp:Abs-Feuchte:Windchill:Wind:
Aussen-T/F 201 16-08-2015 16:40:00 15.7 C 12.44 g/m*3 15.7 C 8.1 km/h
202 16-08-2015 16:45:00 15.6 C 12.23 g/m*3 15.6 C 6.4 km/h
203 16-08-2015 16:50:00 15.6 C 12.23 g/m*3 15.6 C 3.2 km/h
204 16-08-2015 16:55:00 15.6 C 12.37 g/m*3 15.6 C 1.6 km/h
205 16-08-2015 17:00:00 15.5 C 12.29 g/m*3 15.5 C 3.2 km/h
206 16-08-2015 17:05:00 15.4 C 12.22 g/m*3 15.4 C 3.2 km/h
207 16-08-2015 17:10:00 15.4 C 12.22 g/m*3 15.4 C 11.3 km/h
208 16-08-2015 17:15:00 15.4 C 12.22 g/m*3 15.4 C 3.2 km/h
209 16-08-2015 17:20:00 15.4 C 12.22 g/m*3 15.4 C 0 km/h
210 16-08-2015 17:25:00 15.4 C 12.22 g/m*3 15.4 C 3.2 km/h
211 16-08-2015 17:30:00 15.4 C 12.22 g/m*3 15.4 C 3.2 km/h
212 16-08-2015 17:35:00 15.4 C 12.22 g/m*3 15.4 C 9.7 km/h
213 16-08-2015 17:40:00 15.3 C 12.14 g/m*3 15.3 C 4.8 km/h
214 16-08-2015 17:45:00 15.3 C 12.14 g/m*3 15.3 C 3.2 km/h
215 16-08-2015 17:50:00 15.3 C 12.14 g/m*3 15.3 C 6.4 km/h
216 16-08-2015 17:55:00 15.3 C 12.14 g/m*3 15.3 C 1.6 km/h
217 16-08-2015 18:00:00 15.3 C 12.14 g/m*3 15.3 C 4.8 km/h
218 16-08-2015 18:05:00 15.3 C 12.28 g/m*3 15.3 C 4.8 km/h
219 16-08-2015 18:10:00 15.3 C 12.28 g/m*3 15.3 C 3.2 km/h
220 16-08-2015 18:15:00 15.3 C 12.28 g/m*3 15.3 C 9.7 km/h
221 16-08-2015 18:20:00 15.2 C 12.07 g/m*3 15.2 C 8.1 km/h
222 16-08-2015 18:25:00 15.2 C 12.07 g/m*3 15.2 C 3.2 km/h
223 16-08-2015 18:30:00 15.2 C 12.07 g/m*3 15.2 C 1.6 km/h
224 16-08-2015 18:35:00 15.2 C 12.07 g/m*3 15.2 C 1.6 km/h
225 16-08-2015 18:40:00 15.2 C 12.07 g/m*3 15.2 C 1.6 km/h
Sensor: Nr:Datum:Temp:Abs-Feuchte:Windchill:Wind:
Aussen-T/F 226 16-08-2015 18:45:00 15.3 C 12.14 g/m*3 15.3 C 1.6 km/h
227 16-08-2015 18:50:00 15.2 C 12.07 g/m*3 15.2 C 1.6 km/h
228 16-08-2015 18:55:00 15.3 C 12.14 g/m*3 15.3 C 4.8 km/h
229 16-08-2015 19:00:00 15.2 C 12.07 g/m*3 15.2 C 4.8 km/h
230 16-08-2015 19:05:00 15.2 C 12.07 g/m*3 15.2 C 4.8 km/h
231 16-08-2015 19:10:00 15.2 C 11.94 g/m*3 15.2 C 4.8 km/h
232 16-08-2015 19:15:00 15.2 C 11.94 g/m*3 15.2 C 4.8 km/h
233 16-08-2015 19:20:00 15.2 C 12.07 g/m*3 15.2 C 0 km/h
234 16-08-2015 19:25:00 15.2 C 12.07 g/m*3 15.2 C 0 km/h
235 16-08-2015 19:30:00 15.2 C 12.2 g/m*3 15.2 C 0 km/h
236 16-08-2015 19:35:00 15.1 C 12.13 g/m*3 15.1 C 0 km/h
237 16-08-2015 19:40:00 15 C 12.05 g/m*3 15 C 1.6 km/h
238 16-08-2015 19:45:00 14.9 C 11.85 g/m*3 14.9 C 11.3 km/h
239 16-08-2015 19:50:00 14.8 C 11.78 g/m*3 14.8 C 8.1 km/h
240 16-08-2015 19:55:00 14.7 C 11.58 g/m*3 14.7 C 9.7 km/h
241 16-08-2015 20:00:00 14.7 C 11.58 g/m*3 14.7 C 6.4 km/h
242 16-08-2015 20:05:00 14.7 C 11.58 g/m*3 14.7 C 6.4 km/h
243 16-08-2015 20:10:00 14.7 C 11.58 g/m*3 14.7 C 4.8 km/h
244 16-08-2015 20:15:00 14.6 C 11.51 g/m*3 14.6 C 1.6 km/h
245 16-08-2015 20:20:00 14.6 C 11.51 g/m*3 14.6 C 4.8 km/h
246 16-08-2015 20:25:00 14.6 C 11.51 g/m*3 14.6 C 1.6 km/h
247 16-08-2015 20:30:00 14.7 C 11.71 g/m*3 14.7 C 1.6 km/h
248 16-08-2015 20:35:00 14.6 C 11.64 g/m*3 14.6 C 4.8 km/h
249 16-08-2015 20:40:00 14.6 C 11.64 g/m*3 14.6 C 8.1 km/h
250 16-08-2015 20:45:00 14.4 C 11.5 g/m*3 14.4 C 4.8 km/h
Sensor: Nr:Datum:Temp:Abs-Feuchte:Windchill:Wind:
Aussen-T/F 251 16-08-2015 20:50:00 14.4 C 11.5 g/m*3 14.4 C 8.1 km/h
252 16-08-2015 20:55:00 14.5 C 11.57 g/m*3 14.5 C 1.6 km/h
253 16-08-2015 21:00:00 14.4 C 11.62 g/m*3 14.4 C 0 km/h
254 16-08-2015 21:05:00 14.4 C 11.5 g/m*3 14.4 C 8.1 km/h
255 16-08-2015 21:10:00 14.4 C 11.5 g/m*3 14.4 C 11.3 km/h
256 16-08-2015 21:15:00 14.4 C 11.62 g/m*3 14.4 C 4.8 km/h
257 16-08-2015 21:20:00 14.4 C 11.5 g/m*3 14.4 C 4.8 km/h
258 16-08-2015 21:25:00 14.3 C 11.43 g/m*3 14.3 C 4.8 km/h
259 16-08-2015 21:30:00 14.3 C 11.43 g/m*3 14.3 C 6.4 km/h
260 16-08-2015 21:35:00 14.3 C 11.43 g/m*3 14.3 C 0 km/h
261 16-08-2015 21:40:00 14.3 C 11.43 g/m*3 14.3 C 3.2 km/h
262 16-08-2015 21:45:00 14.3 C 11.55 g/m*3 14.3 C 1.6 km/h
263 16-08-2015 21:50:00 14.3 C 11.43 g/m*3 14.3 C 8.1 km/h
264 16-08-2015 21:55:00 14.3 C 11.43 g/m*3 14.3 C 6.4 km/h
265 16-08-2015 22:00:00 14.3 C 11.43 g/m*3 14.3 C 6.4 km/h
266 16-08-2015 22:05:00 14.3 C 11.43 g/m*3 14.3 C 3.2 km/h
267 16-08-2015 22:10:00 14.3 C 11.43 g/m*3 14.3 C 0 km/h
268 16-08-2015 22:15:00 14.3 C 11.43 g/m*3 14.3 C 0 km/h
269 16-08-2015 22:20:00 14.3 C 11.55 g/m*3 14.3 C 4.8 km/h
270 16-08-2015 22:25:00 14.3 C 11.55 g/m*3 14.3 C 0 km/h
271 16-08-2015 22:30:00 14.2 C 11.48 g/m*3 14.2 C 3.2 km/h
272 16-08-2015 22:35:00 14.2 C 11.48 g/m*3 14.2 C 3.2 km/h
273 16-08-2015 22:40:00 14.2 C 11.48 g/m*3 14.2 C 1.6 km/h
274 16-08-2015 22:45:00 14.3 C 11.55 g/m*3 14.3 C 1.6 km/h
275 16-08-2015 22:50:00 14.3 C 11.55 g/m*3 14.3 C 0 km/h
Sensor: Nr:Datum:Temp:Abs-Feuchte:Windchill:Wind:
Aussen-T/F 276 16-08-2015 22:55:00 14.3 C 11.55 g/m*3 14.3 C 4.8 km/h
277 16-08-2015 23:00:00 14.3 C 11.55 g/m*3 14.3 C 4.8 km/h
278 16-08-2015 23:05:00 14.3 C 11.55 g/m*3 14.3 C 0 km/h
279 16-08-2015 23:10:00 14.3 C 11.55 g/m*3 14.3 C 4.8 km/h
280 16-08-2015 23:15:00 14.3 C 11.55 g/m*3 14.3 C 0 km/h
281 16-08-2015 23:20:00 14.3 C 11.55 g/m*3 14.3 C 1.6 km/h
282 16-08-2015 23:25:00 14.3 C 11.55 g/m*3 14.3 C 4.8 km/h
283 16-08-2015 23:30:00 14.3 C 11.55 g/m*3 14.3 C 3.2 km/h
284 16-08-2015 23:35:00 14.3 C 11.55 g/m*3 14.3 C 9.7 km/h
285 16-08-2015 23:40:00 14.4 C 11.5 g/m*3 14.4 C 8.1 km/h
286 16-08-2015 23:45:00 14.4 C 11.5 g/m*3 14.4 C 3.2 km/h
287 16-08-2015 23:50:00 14.4 C 11.5 g/m*3 14.4 C 3.2 km/h
288 16-08-2015 23:55:00 14.4 C 11.5 g/m*3 14.4 C 6.4 km/h

Legende:
   Min
   Max


Maximal/Minimal-Werte vom 16.08.2015 - 16.08.2015

Sensor Min Max Avg
Temp
(Aussen-T/F)
14.2 °C
16-08-2015  22:30:00
17.8 °C
16-08-2015  00:00:00
15.86 °C
Abs-Feuchte
(Aussen-T/F)
11.43 g/m*3
16-08-2015  21:25:00
12.59 g/m*3
16-08-2015  16:10:00
12.09 g/m*3
Windchill
(Aussen-T/F)
14.2 C
16-08-2015  22:30:00
17.8 C
16-08-2015  00:00:00
15.8 C

Die Daten stammen von einer Davis Vantage Pro 2 Wetter-Station und werden unter Linux mit der Software wview2wettercgi und aufbereitet. Alle Angaben erfolgen ohne Gewähr für ihre Vollständigkeit oder Richtigkeit.
Kontakt: Rainer Krienke krienke@uni-koblenz.de . Meine Webseiten an der Uni Koblenz oder privat.
Version: $Revision: 0.78 $